createdAt,value
2017-04-24T00:00:41.785Z,1015.84
2017-04-24T00:01:41.790Z,1015.81
2017-04-24T00:02:41.796Z,1015.78
2017-04-24T00:03:41.802Z,1015.75
2017-04-24T00:04:41.807Z,1015.78
2017-04-24T00:05:41.814Z,1015.75
2017-04-24T00:06:41.819Z,1015.77
2017-04-24T00:07:41.825Z,1015.73
2017-04-24T00:08:41.830Z,1015.69
2017-04-24T00:09:41.887Z,1015.65
2017-04-24T00:10:41.843Z,1015.65
2017-04-24T00:11:41.844Z,1015.64
2017-04-24T00:12:41.852Z,1015.63
2017-04-24T00:13:41.858Z,1015.59
2017-04-24T00:14:41.865Z,1015.59
2017-04-24T00:15:41.870Z,1015.61
2017-04-24T00:16:41.873Z,1015.59
2017-04-24T00:17:41.880Z,1015.61
2017-04-24T00:18:41.887Z,1015.58
2017-04-24T00:19:41.891Z,1015.57
2017-04-24T00:20:41.896Z,1015.58
2017-04-24T00:21:41.902Z,1015.49
2017-04-24T00:22:41.907Z,1015.53
2017-04-24T00:23:41.915Z,1015.47
2017-04-24T00:24:41.918Z,1015.48
2017-04-24T00:25:41.925Z,1015.49
2017-04-24T00:26:41.929Z,1015.51
2017-04-24T00:27:41.935Z,1015.51
2017-04-24T00:28:41.941Z,1015.48
2017-04-24T00:29:41.946Z,1015.47
2017-04-24T00:30:41.951Z,1015.47
2017-04-24T00:31:42.008Z,1015.39
2017-04-24T00:32:41.963Z,1015.37
2017-04-24T00:33:41.968Z,1015.35
2017-04-24T00:34:41.976Z,1015.35
2017-04-24T00:35:41.981Z,1015.33
2017-04-24T00:36:41.987Z,1015.31
2017-04-24T00:37:41.991Z,1015.33
2017-04-24T00:38:41.998Z,1015.31
2017-04-24T00:39:42.053Z,1015.25
2017-04-24T00:40:42.007Z,1015.25
2017-04-24T00:41:42.014Z,1015.27
2017-04-24T00:42:42.020Z,1015.27
2017-04-24T00:43:42.026Z,1015.26
2017-04-24T00:44:42.081Z,1015.24
2017-04-24T00:45:42.036Z,1015.22
2017-04-24T00:46:42.042Z,1015.19
2017-04-24T00:47:42.049Z,1015.19
2017-04-24T00:48:42.054Z,1015.21
2017-04-24T00:49:42.058Z,1015.21
2017-04-24T00:50:42.066Z,1015.23
2017-04-24T00:51:42.069Z,1015.23
2017-04-24T00:52:42.077Z,1015.19
2017-04-24T00:53:42.080Z,1015.2
2017-04-24T00:54:42.088Z,1015.23
2017-04-24T00:55:42.143Z,1015.22
2017-04-24T00:56:42.098Z,1015.2
2017-04-24T00:57:42.105Z,1015.17
2017-04-24T00:58:42.109Z,1015.17
2017-04-24T00:59:42.115Z,1015.14
2017-04-24T01:00:42.121Z,1015.07
2017-04-24T01:01:42.127Z,1015.05
2017-04-24T01:02:42.132Z,1015.06
2017-04-24T01:03:42.139Z,1015.04
2017-04-24T01:04:42.144Z,1015.04
2017-04-24T01:05:42.152Z,1014.97
2017-04-24T01:06:42.154Z,1014.97
2017-04-24T01:07:42.210Z,1014.93
2017-04-24T01:08:42.166Z,1014.94
2017-04-24T01:09:42.171Z,1014.95
2017-04-24T01:10:42.477Z,1014.92
2017-04-24T01:11:42.184Z,1014.94
2017-04-24T01:12:42.190Z,1014.93
2017-04-24T01:13:42.196Z,1014.91
2017-04-24T01:14:42.200Z,1014.85
2017-04-24T01:15:42.207Z,1014.86
2017-04-24T01:16:42.211Z,1014.86
2017-04-24T01:17:42.216Z,1014.85
2017-04-24T01:18:42.222Z,1014.85
2017-04-24T01:19:42.228Z,1014.82
2017-04-24T01:20:42.233Z,1014.85
2017-04-24T01:21:42.238Z,1014.81
2017-04-24T01:22:42.244Z,1014.8
2017-04-24T01:23:42.252Z,1014.79
2017-04-24T01:24:42.256Z,1014.78
2017-04-24T01:25:42.262Z,1014.75
2017-04-24T01:26:42.267Z,1014.71
2017-04-24T01:27:42.273Z,1014.68
2017-04-24T01:28:42.328Z,1014.68
2017-04-24T01:29:42.284Z,1014.65
2017-04-24T01:30:42.290Z,1014.66
2017-04-24T01:31:42.295Z,1014.63
2017-04-24T01:32:42.351Z,1014.59
2017-04-24T01:33:42.306Z,1014.59
2017-04-24T01:34:42.311Z,1014.57
2017-04-24T01:35:42.317Z,1014.54
2017-04-24T01:36:42.321Z,1014.52
2017-04-24T01:37:42.330Z,1014.52
2017-04-24T01:38:42.334Z,1014.51
2017-04-24T01:39:42.389Z,1014.5
2017-04-24T01:40:42.345Z,1014.52
2017-04-24T01:41:42.352Z,1014.47
2017-04-24T01:42:42.406Z,1014.48
2017-04-24T01:43:42.362Z,1014.45
2017-04-24T01:44:42.368Z,1014.48
2017-04-24T01:45:42.374Z,1014.49
2017-04-24T01:46:42.428Z,1014.47
2017-04-24T01:47:42.385Z,1014.43
2017-04-24T01:48:42.391Z,1014.43
2017-04-24T01:49:42.396Z,1014.41
2017-04-24T01:50:42.402Z,1014.44
2017-04-24T01:51:42.457Z,1014.38
2017-04-24T01:52:42.413Z,1014.41
2017-04-24T01:53:42.418Z,1014.42
2017-04-24T01:54:42.474Z,1014.39
2017-04-24T01:55:42.428Z,1014.36
2017-04-24T01:56:42.735Z,1014.37
2017-04-24T01:57:42.491Z,1014.3
2017-04-24T01:58:42.447Z,1014.32
2017-04-24T01:59:42.452Z,1014.31
2017-04-24T02:00:42.458Z,1014.35
2017-04-24T02:01:42.464Z,1014.31
2017-04-24T02:02:42.469Z,1014.3
2017-04-24T02:03:42.476Z,1014.31
2017-04-24T02:04:42.478Z,1014.31
2017-04-24T02:05:42.485Z,1014.33
2017-04-24T02:06:42.491Z,1014.32
2017-04-24T02:07:42.496Z,1014.37
2017-04-24T02:08:42.503Z,1014.31
2017-04-24T02:09:42.508Z,1014.29
2017-04-24T02:10:42.515Z,1014.29
2017-04-24T02:11:42.520Z,1014.26
2017-04-24T02:12:42.526Z,1014.25
2017-04-24T02:13:42.532Z,1014.32
2017-04-24T02:14:42.538Z,1014.26
2017-04-24T02:15:42.541Z,1014.24
2017-04-24T02:16:42.597Z,1014.23
2017-04-24T02:17:42.553Z,1014.25
2017-04-24T02:18:42.560Z,1014.19
2017-04-24T02:19:42.565Z,1014.21
2017-04-24T02:20:42.570Z,1014.19
2017-04-24T02:21:42.577Z,1014.16
2017-04-24T02:22:42.582Z,1014.15
2017-04-24T02:23:42.587Z,1014.14
2017-04-24T02:24:42.591Z,1014.11
2017-04-24T02:25:42.598Z,1014.09
2017-04-24T02:26:42.603Z,1014.14
2017-04-24T02:27:42.609Z,1014.11
2017-04-24T02:28:42.615Z,1014.04
2017-04-24T02:29:42.621Z,1014.06
2017-04-24T02:30:42.625Z,1014.07
2017-04-24T02:31:42.630Z,1014.01
2017-04-24T02:32:42.637Z,1014.01
2017-04-24T02:33:42.643Z,1013.97
2017-04-24T02:34:42.699Z,1013.99
2017-04-24T02:35:42.653Z,1014
2017-04-24T02:36:42.660Z,1013.97
2017-04-24T02:37:42.666Z,1013.96
2017-04-24T02:38:42.671Z,1013.98
2017-04-24T02:39:42.677Z,1013.98
2017-04-24T02:40:42.735Z,1013.89
2017-04-24T02:41:42.687Z,1013.88
2017-04-24T02:42:42.694Z,1013.91
2017-04-24T02:43:42.699Z,1013.86
2017-04-24T02:44:42.703Z,1013.85
2017-04-24T02:45:42.760Z,1013.82
2017-04-24T02:46:42.715Z,1013.82
2017-04-24T02:47:42.770Z,1013.79
2017-04-24T02:48:42.726Z,1013.8
2017-04-24T02:49:42.732Z,1013.78
2017-04-24T02:50:42.788Z,1013.75
2017-04-24T02:51:42.742Z,1013.74
2017-04-24T02:52:42.747Z,1013.75
2017-04-24T02:53:42.753Z,1013.69
2017-04-24T02:54:42.758Z,1013.67
2017-04-24T02:55:42.813Z,1013.64
2017-04-24T02:56:42.770Z,1013.59
2017-04-24T02:57:42.776Z,1013.58
2017-04-24T02:58:42.780Z,1013.56
2017-04-24T02:59:42.792Z,1013.56
2017-04-24T03:00:42.793Z,1013.56
2017-04-24T03:01:42.798Z,1013.54
2017-04-24T03:02:42.853Z,1013.53
2017-04-24T03:03:42.814Z,1013.49
2017-04-24T03:04:42.814Z,1013.48
2017-04-24T03:05:43.122Z,1013.5
2017-04-24T03:06:42.824Z,1013.49
2017-04-24T03:07:42.830Z,1013.51
2017-04-24T03:08:42.836Z,1013.46
2017-04-24T03:09:42.841Z,1013.47
2017-04-24T03:10:42.847Z,1013.44
2017-04-24T03:11:42.852Z,1013.43
2017-04-24T03:12:42.858Z,1013.4
2017-04-24T03:13:42.864Z,1013.43
2017-04-24T03:14:42.867Z,1013.4
2017-04-24T03:15:42.924Z,1013.36
2017-04-24T03:16:42.880Z,1013.37
2017-04-24T03:17:42.884Z,1013.33
2017-04-24T03:18:42.890Z,1013.33
2017-04-24T03:19:42.946Z,1013.3
2017-04-24T03:20:42.902Z,1013.29
2017-04-24T03:21:42.906Z,1013.28
2017-04-24T03:22:42.910Z,1013.28
2017-04-24T03:23:42.969Z,1013.25
2017-04-24T03:24:42.922Z,1013.24
2017-04-24T03:25:42.928Z,1013.24
2017-04-24T03:26:42.983Z,1013.22
2017-04-24T03:27:42.990Z,1013.17
2017-04-24T03:28:42.942Z,1013.18
2017-04-24T03:29:42.950Z,1013.19
2017-04-24T03:30:42.955Z,1013.16
2017-04-24T03:31:42.961Z,1013.16
2017-04-24T03:32:42.968Z,1013.1
2017-04-24T03:33:42.971Z,1013.11
2017-04-24T03:34:43.027Z,1013.13
2017-04-24T03:35:42.983Z,1013.1
2017-04-24T03:36:42.987Z,1013.06
2017-04-24T03:37:42.993Z,1013.08
2017-04-24T03:38:42.999Z,1013.03
2017-04-24T03:39:43.004Z,1013.02
2017-04-24T03:40:43.041Z,1013.06
2017-04-24T03:41:43.016Z,1013.02
2017-04-24T03:42:43.022Z,1012.98
2017-04-24T03:43:43.026Z,1012.92
2017-04-24T03:44:43.032Z,1012.98
2017-04-24T03:45:43.035Z,1012.92
2017-04-24T03:46:43.043Z,1012.94
2017-04-24T03:47:43.048Z,1012.91
2017-04-24T03:48:43.053Z,1012.89
2017-04-24T03:49:43.108Z,1012.93
2017-04-24T03:50:43.063Z,1012.89
2017-04-24T03:51:43.068Z,1012.83
2017-04-24T03:52:43.072Z,1012.8
2017-04-24T03:53:43.080Z,1012.8
2017-04-24T03:54:43.084Z,1012.79
2017-04-24T03:55:43.090Z,1012.81
2017-04-24T03:56:43.097Z,1012.78
2017-04-24T03:57:43.101Z,1012.8
2017-04-24T03:58:43.105Z,1012.79
2017-04-24T03:59:43.121Z,1012.7
2017-04-24T04:00:43.116Z,1012.73
2017-04-24T04:01:43.172Z,1012.73
2017-04-24T04:02:43.126Z,1012.76
2017-04-24T04:03:43.134Z,1012.75
2017-04-24T04:04:43.138Z,1012.72
2017-04-24T04:05:43.144Z,1012.67
2017-04-24T04:06:43.148Z,1012.73
2017-04-24T04:07:43.204Z,1012.69
2017-04-24T04:08:43.161Z,1012.67
2017-04-24T04:09:43.165Z,1012.64
2017-04-24T04:10:43.171Z,1012.68
2017-04-24T04:11:43.177Z,1012.63
2017-04-24T04:12:43.183Z,1012.65
2017-04-24T04:13:43.187Z,1012.66
2017-04-24T04:14:43.194Z,1012.62
2017-04-24T04:15:43.200Z,1012.62
2017-04-24T04:16:43.204Z,1012.62
2017-04-24T04:17:43.214Z,1012.57
2017-04-24T04:18:43.215Z,1012.6
2017-04-24T04:19:43.271Z,1012.6
2017-04-24T04:20:43.276Z,1012.55
2017-04-24T04:21:43.232Z,1012.55
2017-04-24T04:22:43.238Z,1012.5
2017-04-24T04:23:43.242Z,1012.47
2017-04-24T04:24:43.248Z,1012.51
2017-04-24T04:25:43.255Z,1012.52
2017-04-24T04:26:43.259Z,1012.49
2017-04-24T04:27:43.265Z,1012.47
2017-04-24T04:28:43.271Z,1012.49
2017-04-24T04:29:43.326Z,1012.49
2017-04-24T04:30:43.282Z,1012.49
2017-04-24T04:31:43.288Z,1012.51
2017-04-24T04:32:43.292Z,1012.47
2017-04-24T04:33:43.600Z,1012.42
2017-04-24T04:34:43.304Z,1012.41
2017-04-24T04:35:43.309Z,1012.41
2017-04-24T04:36:43.315Z,1012.43
2017-04-24T04:37:43.322Z,1012.42
2017-04-24T04:38:43.326Z,1012.44
2017-04-24T04:39:43.332Z,1012.46
2017-04-24T04:40:43.337Z,1012.45
2017-04-24T04:41:43.342Z,1012.43
2017-04-24T04:42:43.349Z,1012.41
2017-04-24T04:43:43.354Z,1012.42
2017-04-24T04:44:43.409Z,1012.4
2017-04-24T04:45:43.369Z,1012.39
2017-04-24T04:46:43.371Z,1012.36
2017-04-24T04:47:43.378Z,1012.42
2017-04-24T04:48:43.383Z,1012.42
2017-04-24T04:49:43.437Z,1012.45
2017-04-24T04:50:43.393Z,1012.41
2017-04-24T04:51:43.449Z,1012.4
2017-04-24T04:52:43.405Z,1012.41
2017-04-24T04:53:43.410Z,1012.4
2017-04-24T04:54:43.466Z,1012.38
2017-04-24T04:55:43.421Z,1012.33
2017-04-24T04:56:43.427Z,1012.35
2017-04-24T04:57:43.431Z,1012.35
2017-04-24T04:58:43.437Z,1012.38
2017-04-24T04:59:43.443Z,1012.35
2017-04-24T05:00:43.497Z,1012.31
2017-04-24T05:01:43.458Z,1012.31
2017-04-24T05:02:43.462Z,1012.37
2017-04-24T05:03:43.464Z,1012.41
2017-04-24T05:04:43.470Z,1012.44
2017-04-24T05:05:43.475Z,1012.43
2017-04-24T05:06:43.483Z,1012.47
2017-04-24T05:07:43.486Z,1012.49
2017-04-24T05:08:43.494Z,1012.49
2017-04-24T05:09:43.499Z,1012.54
2017-04-24T05:10:43.505Z,1012.59
2017-04-24T05:11:43.560Z,1012.54
2017-04-24T05:12:43.516Z,1012.59
2017-04-24T05:13:43.572Z,1012.62
2017-04-24T05:14:43.526Z,1012.66
2017-04-24T05:15:43.534Z,1012.7
2017-04-24T05:16:43.539Z,1012.72
2017-04-24T05:17:43.548Z,1012.68
2017-04-24T05:18:43.553Z,1012.68
2017-04-24T05:19:43.558Z,1012.69
2017-04-24T05:20:43.615Z,1012.64
2017-04-24T05:21:43.572Z,1012.64
2017-04-24T05:22:43.578Z,1012.64
2017-04-24T05:23:43.585Z,1012.69
2017-04-24T05:24:43.590Z,1012.63
2017-04-24T05:25:43.599Z,1012.59
2017-04-24T05:26:43.604Z,1012.56
2017-04-24T05:27:43.612Z,1012.55
2017-04-24T05:28:43.668Z,1012.42
2017-04-24T05:29:43.624Z,1012.34
2017-04-24T05:30:43.631Z,1012.32
2017-04-24T05:31:43.639Z,1012.31
2017-04-24T05:32:43.645Z,1012.29
2017-04-24T05:33:43.650Z,1012.29
2017-04-24T05:34:43.659Z,1012.37
2017-04-24T05:35:43.664Z,1012.45
2017-04-24T05:36:43.670Z,1012.59
2017-04-24T05:37:43.676Z,1012.54
2017-04-24T05:38:43.693Z,1012.52
2017-04-24T05:39:43.690Z,1012.49
2017-04-24T05:40:43.696Z,1012.49
2017-04-24T05:41:43.708Z,1012.43
2017-04-24T05:42:43.761Z,1012.4
2017-04-24T05:43:43.718Z,1012.28
2017-04-24T05:44:43.726Z,1012.2
2017-04-24T05:45:43.730Z,1012.26
2017-04-24T05:46:43.738Z,1012.33
2017-04-24T05:47:43.744Z,1012.4
2017-04-24T05:48:43.751Z,1012.35
2017-04-24T05:49:43.760Z,1012.28
2017-04-24T05:50:43.764Z,1012.27
2017-04-24T05:51:43.820Z,1012.26
2017-04-24T05:52:43.777Z,1012.28
2017-04-24T05:53:44.083Z,1012.28
2017-04-24T05:54:43.790Z,1012.3
2017-04-24T05:55:43.799Z,1012.23
2017-04-24T05:56:43.803Z,1012.23
2017-04-24T05:57:43.861Z,1012.36
2017-04-24T05:58:43.816Z,1012.37
2017-04-24T05:59:43.823Z,1012.37
2017-04-24T06:00:43.830Z,1012.32
2017-04-24T06:01:43.837Z,1012.23
2017-04-24T06:02:43.844Z,1012.28
2017-04-24T06:03:43.902Z,1012.21
2017-04-24T06:04:43.858Z,1012.12
2017-04-24T06:05:44.165Z,1012.13
2017-04-24T06:06:43.870Z,1012.18
2017-04-24T06:07:43.877Z,1012.22
2017-04-24T06:08:43.885Z,1012.24
2017-04-24T06:09:43.888Z,1012.25
2017-04-24T06:10:43.897Z,1012.2
2017-04-24T06:11:43.904Z,1012.2
2017-04-24T06:12:43.911Z,1012.19
2017-04-24T06:13:43.917Z,1012.28
2017-04-24T06:14:43.923Z,1012.31
2017-04-24T06:15:43.932Z,1012.39
2017-04-24T06:16:43.937Z,1012.52
2017-04-24T06:17:43.944Z,1012.68
2017-04-24T06:18:43.951Z,1012.69
2017-04-24T06:19:44.006Z,1012.74
2017-04-24T06:20:44.016Z,1012.71
2017-04-24T06:21:43.972Z,1012.79
2017-04-24T06:22:44.027Z,1012.74
2017-04-24T06:23:44.036Z,1012.77
2017-04-24T06:24:43.991Z,1012.79
2017-04-24T06:25:44.000Z,1012.81
2017-04-24T06:26:44.007Z,1012.75
2017-04-24T06:27:44.016Z,1012.79
2017-04-24T06:28:44.021Z,1012.77
2017-04-24T06:29:44.029Z,1012.85
2017-04-24T06:30:44.037Z,1012.82
2017-04-24T06:31:44.043Z,1012.85
2017-04-24T06:32:44.052Z,1012.86
2017-04-24T06:33:44.060Z,1012.88
2017-04-24T06:34:44.067Z,1012.88
2017-04-24T06:35:44.074Z,1012.77
2017-04-24T06:36:44.082Z,1012.78
2017-04-24T06:37:44.090Z,1012.57
2017-04-24T06:38:44.098Z,1012.38
2017-04-24T06:39:44.106Z,1012.31
2017-04-24T06:40:44.113Z,1012.23
2017-04-24T06:41:44.172Z,1012.17
2017-04-24T06:42:44.179Z,1012.16
2017-04-24T06:43:44.134Z,1012.09
2017-04-24T06:44:44.193Z,1012.17
2017-04-24T06:45:44.150Z,1012.11
2017-04-24T06:46:44.157Z,1012.12
2017-04-24T06:47:44.165Z,1012.06
2017-04-24T06:48:44.223Z,1012.12
2017-04-24T06:49:44.177Z,1012.04
2017-04-24T06:50:44.185Z,1011.97
2017-04-24T06:51:44.193Z,1012.03
2017-04-24T06:52:44.201Z,1011.99
2017-04-24T06:53:44.206Z,1011.99
2017-04-24T06:54:44.212Z,1011.98
2017-04-24T06:55:44.269Z,1011.96
2017-04-24T06:56:44.224Z,1011.98
2017-04-24T06:57:44.231Z,1011.89
2017-04-24T06:58:44.237Z,1011.91
2017-04-24T06:59:44.244Z,1011.89
2017-04-24T07:00:44.249Z,1011.87
2017-04-24T07:01:44.256Z,1011.83
2017-04-24T07:02:44.263Z,1011.97
2017-04-24T07:03:44.270Z,1012.31
2017-04-24T07:04:44.325Z,1012.68
2017-04-24T07:05:44.282Z,1012.28
2017-04-24T07:06:44.288Z,1012.07
2017-04-24T07:07:44.294Z,1012.55
2017-04-24T07:08:44.353Z,1012.32
2017-04-24T07:09:44.309Z,1011.93
2017-04-24T07:10:44.316Z,1011.77
2017-04-24T07:11:44.324Z,1011.74
2017-04-24T07:12:44.330Z,1011.75
2017-04-24T07:13:44.337Z,1011.73
2017-04-24T07:14:44.344Z,1011.73
2017-04-24T07:15:44.349Z,1011.71
2017-04-24T07:16:44.356Z,1011.72
2017-04-24T07:17:44.411Z,1011.7
2017-04-24T07:18:44.370Z,1011.66
2017-04-24T07:19:44.375Z,1011.7
2017-04-24T07:20:44.383Z,1011.7
2017-04-24T07:21:44.391Z,1011.65
2017-04-24T07:22:44.395Z,1011.64
2017-04-24T07:23:44.452Z,1011.66
2017-04-24T07:24:44.408Z,1011.59
2017-04-24T07:25:44.466Z,1011.73
2017-04-24T07:26:44.420Z,1011.68
2017-04-24T07:27:44.426Z,1011.72
2017-04-24T07:28:44.436Z,1011.7
2017-04-24T07:29:44.439Z,1011.74
2017-04-24T07:30:44.497Z,1011.71
2017-04-24T07:31:44.454Z,1011.62
2017-04-24T07:32:44.512Z,1011.71
2017-04-24T07:33:44.463Z,1011.68
2017-04-24T07:34:44.472Z,1011.62
2017-04-24T07:35:44.528Z,1011.6
2017-04-24T07:36:44.483Z,1011.61
2017-04-24T07:37:44.490Z,1011.62
2017-04-24T07:38:44.497Z,1011.63
2017-04-24T07:39:44.503Z,1011.56
2017-04-24T07:40:44.508Z,1011.56
2017-04-24T07:41:44.515Z,1011.62
2017-04-24T07:42:44.523Z,1011.54
2017-04-24T07:43:44.529Z,1011.64
2017-04-24T07:44:44.537Z,1011.54
2017-04-24T07:45:44.541Z,1011.52
2017-04-24T07:46:44.599Z,1011.51
2017-04-24T07:47:44.605Z,1011.53
2017-04-24T07:48:44.615Z,1011.54
2017-04-24T07:49:44.567Z,1011.53
2017-04-24T07:50:44.575Z,1011.44
2017-04-24T07:51:44.630Z,1011.43
2017-04-24T07:52:44.585Z,1011.44
2017-04-24T07:53:44.593Z,1011.4
2017-04-24T07:54:44.650Z,1011.42
2017-04-24T07:55:44.906Z,1011.36
2017-04-24T07:56:44.612Z,1011.32
2017-04-24T07:57:44.619Z,1011.32
2017-04-24T07:58:44.626Z,1011.27
2017-04-24T07:59:44.632Z,1011.21
2017-04-24T08:00:44.639Z,1011.21
2017-04-24T08:01:44.696Z,1011.22
2017-04-24T08:02:44.651Z,1011.09
2017-04-24T08:03:44.657Z,1011.13
2017-04-24T08:04:44.670Z,1011.19
2017-04-24T08:05:44.671Z,1011.16
2017-04-24T08:06:44.679Z,1011.07
2017-04-24T08:07:44.685Z,1011.09
2017-04-24T08:08:44.691Z,1011.12
2017-04-24T08:09:44.700Z,1011.07
2017-04-24T08:10:44.705Z,1011.07
2017-04-24T08:11:44.710Z,1011.03
2017-04-24T08:12:44.719Z,1010.99
2017-04-24T08:13:44.724Z,1010.99
2017-04-24T08:14:44.730Z,1011.03
2017-04-24T08:15:44.737Z,1010.93
2017-04-24T08:16:44.744Z,1010.97
2017-04-24T08:17:44.750Z,1010.98
2017-04-24T08:18:44.757Z,1010.98
2017-04-24T08:19:44.764Z,1010.95
2017-04-24T08:20:44.770Z,1011.02
2017-04-24T08:21:44.777Z,1010.96
2017-04-24T08:22:44.834Z,1011
2017-04-24T08:23:44.791Z,1010.98
2017-04-24T08:24:45.098Z,1010.93
2017-04-24T08:25:44.805Z,1010.97
2017-04-24T08:26:45.111Z,1010.98
2017-04-24T08:27:44.868Z,1010.93
2017-04-24T08:28:44.875Z,1010.93
2017-04-24T08:29:44.832Z,1010.85
2017-04-24T08:30:44.841Z,1010.92
2017-04-24T08:31:44.846Z,1010.9
2017-04-24T08:32:44.853Z,1010.89
2017-04-24T08:33:44.859Z,1010.84
2017-04-24T08:34:44.866Z,1010.87
2017-04-24T08:35:44.873Z,1010.84
2017-04-24T08:36:44.879Z,1010.82
2017-04-24T08:37:44.887Z,1010.83
2017-04-24T08:38:44.945Z,1010.78
2017-04-24T08:39:44.900Z,1010.9
2017-04-24T08:40:44.909Z,1010.81
2017-04-24T08:41:44.915Z,1010.76
2017-04-24T08:42:44.922Z,1010.78
2017-04-24T08:43:44.928Z,1010.79
2017-04-24T08:44:44.934Z,1010.77
2017-04-24T08:45:44.941Z,1010.73
2017-04-24T08:46:44.947Z,1010.69
2017-04-24T08:47:44.954Z,1010.72
2017-04-24T08:48:45.264Z,1010.73
2017-04-24T08:49:44.971Z,1010.7
2017-04-24T08:50:44.976Z,1010.72
2017-04-24T08:51:44.983Z,1010.7
2017-04-24T08:52:44.990Z,1010.71
2017-04-24T08:53:44.997Z,1010.68
2017-04-24T08:54:45.054Z,1010.68
2017-04-24T08:55:45.011Z,1010.67
2017-04-24T08:56:45.069Z,1010.66
2017-04-24T08:57:45.075Z,1010.65
2017-04-24T08:58:45.083Z,1010.69
2017-04-24T08:59:45.088Z,1010.64
2017-04-24T09:00:45.045Z,1010.64
2017-04-24T09:01:45.052Z,1010.63
2017-04-24T09:02:45.059Z,1010.66
2017-04-24T09:03:45.067Z,1010.67
2017-04-24T09:04:45.070Z,1010.64
2017-04-24T09:05:45.128Z,1010.72
2017-04-24T09:06:45.086Z,1010.66
2017-04-24T09:07:45.093Z,1010.62
2017-04-24T09:08:45.096Z,1010.7
2017-04-24T09:09:45.105Z,1010.62
2017-04-24T09:10:45.163Z,1010.64
2017-04-24T09:11:45.121Z,1010.66
2017-04-24T09:12:45.126Z,1010.56
2017-04-24T09:13:45.132Z,1010.55
2017-04-24T09:14:45.139Z,1010.55
2017-04-24T09:15:45.145Z,1010.58
2017-04-24T09:16:45.153Z,1010.59
2017-04-24T09:17:45.167Z,1010.55
2017-04-24T09:18:45.166Z,1010.51
2017-04-24T09:19:45.171Z,1010.55
2017-04-24T09:20:45.178Z,1010.5
2017-04-24T09:21:45.235Z,1010.48
2017-04-24T09:22:45.195Z,1010.51
2017-04-24T09:23:45.200Z,1010.41
2017-04-24T09:24:45.256Z,1010.43
2017-04-24T09:25:45.214Z,1010.43
2017-04-24T09:26:45.218Z,1010.42
2017-04-24T09:27:45.225Z,1010.43
2017-04-24T09:28:45.235Z,1010.38
2017-04-24T09:29:45.290Z,1010.32
2017-04-24T09:30:45.295Z,1010.39
2017-04-24T09:31:45.251Z,1010.3
2017-04-24T09:32:45.264Z,1010.28
2017-04-24T09:33:45.266Z,1010.41
2017-04-24T09:34:45.270Z,1010.25
2017-04-24T09:35:45.277Z,1010.24
2017-04-24T09:36:45.286Z,1010.18
2017-04-24T09:37:45.292Z,1010.15
2017-04-24T09:38:45.299Z,1010.19
2017-04-24T09:39:45.307Z,1010.17
2017-04-24T09:40:45.365Z,1010.09
2017-04-24T09:41:45.370Z,1010.15
2017-04-24T09:42:45.328Z,1010.13
2017-04-24T09:43:45.334Z,1010.06
2017-04-24T09:44:45.341Z,1010.02
2017-04-24T09:45:45.346Z,1010
2017-04-24T09:46:45.354Z,1010.02
2017-04-24T09:47:45.361Z,1010.02
2017-04-24T09:48:45.367Z,1010.03
2017-04-24T09:49:45.379Z,1009.96
2017-04-24T09:50:45.381Z,1009.97
2017-04-24T09:51:45.388Z,1009.93
2017-04-24T09:52:45.394Z,1009.92
2017-04-24T09:53:45.451Z,1009.91
2017-04-24T09:54:45.407Z,1009.85
2017-04-24T09:55:45.413Z,1009.86
2017-04-24T09:56:45.421Z,1009.86
2017-04-24T09:57:45.429Z,1009.82
2017-04-24T09:58:45.441Z,1009.85
2017-04-24T09:59:45.442Z,1009.74
2017-04-24T10:00:45.451Z,1009.77
2017-04-24T10:01:45.456Z,1009.74
2017-04-24T10:02:45.464Z,1009.71
2017-04-24T10:03:45.469Z,1009.78
2017-04-24T10:04:45.477Z,1009.69
2017-04-24T10:05:45.534Z,1009.71
2017-04-24T10:06:45.490Z,1009.7
2017-04-24T10:07:45.499Z,1009.71
2017-04-24T10:08:45.556Z,1009.71
2017-04-24T10:09:45.513Z,1009.7
2017-04-24T10:10:45.517Z,1009.71
2017-04-24T10:11:45.524Z,1009.66
2017-04-24T10:12:45.534Z,1009.65
2017-04-24T10:13:45.540Z,1009.64
2017-04-24T10:14:45.546Z,1009.57
2017-04-24T10:15:45.552Z,1009.57
2017-04-24T10:16:45.561Z,1009.55
2017-04-24T10:17:45.616Z,1009.6
2017-04-24T10:18:45.573Z,1009.57
2017-04-24T10:19:45.631Z,1009.56
2017-04-24T10:20:45.587Z,1009.53
2017-04-24T10:21:45.594Z,1009.58
2017-04-24T10:22:45.601Z,1009.53
2017-04-24T10:23:45.608Z,1009.56
2017-04-24T10:24:45.613Z,1009.49
2017-04-24T10:25:45.621Z,1009.45
2017-04-24T10:26:45.629Z,1009.47
2017-04-24T10:27:45.634Z,1009.41
2017-04-24T10:28:45.692Z,1009.35
2017-04-24T10:29:45.650Z,1009.29
2017-04-24T10:30:45.656Z,1009.36
2017-04-24T10:31:45.665Z,1009.39
2017-04-24T10:32:45.721Z,1009.33
2017-04-24T10:33:45.677Z,1009.38
2017-04-24T10:34:45.684Z,1009.32
2017-04-24T10:35:45.691Z,1009.33
2017-04-24T10:36:45.697Z,1009.28
2017-04-24T10:37:45.704Z,1009.24
2017-04-24T10:38:45.711Z,1009.25
2017-04-24T10:39:45.717Z,1009.36
2017-04-24T10:40:45.725Z,1009.2
2017-04-24T10:41:45.731Z,1009.23
2017-04-24T10:42:45.790Z,1009.21
2017-04-24T10:43:45.748Z,1009.18
2017-04-24T10:44:45.753Z,1009.14
2017-04-24T10:45:45.759Z,1009.17
2017-04-24T10:46:45.766Z,1009.13
2017-04-24T10:47:45.773Z,1009.04
2017-04-24T10:48:45.781Z,1009.09
2017-04-24T10:49:45.787Z,1009.08
2017-04-24T10:50:45.794Z,1009.05
2017-04-24T10:51:45.800Z,1009.05
2017-04-24T10:52:45.858Z,1008.96
2017-04-24T10:53:45.815Z,1009.02
2017-04-24T10:54:45.821Z,1008.95
2017-04-24T10:55:45.828Z,1008.93
2017-04-24T10:56:45.834Z,1008.89
2017-04-24T10:57:45.842Z,1008.87
2017-04-24T10:58:45.848Z,1008.88
2017-04-24T10:59:45.855Z,1008.87
2017-04-24T11:00:45.912Z,1008.82
2017-04-24T11:01:45.918Z,1008.8
2017-04-24T11:02:45.876Z,1008.83
2017-04-24T11:03:45.883Z,1008.74
2017-04-24T11:04:45.891Z,1008.83
2017-04-24T11:05:45.898Z,1008.73
2017-04-24T11:06:45.903Z,1008.7
2017-04-24T11:07:45.910Z,1008.61
2017-04-24T11:08:45.916Z,1008.68
2017-04-24T11:09:45.922Z,1008.58
2017-04-24T11:10:45.929Z,1008.54
2017-04-24T11:11:45.937Z,1008.5
2017-04-24T11:12:45.996Z,1008.53
2017-04-24T11:13:45.949Z,1008.47
2017-04-24T11:14:46.005Z,1008.51
2017-04-24T11:15:45.962Z,1008.53
2017-04-24T11:16:45.970Z,1008.48
2017-04-24T11:17:45.975Z,1008.42
2017-04-24T11:18:46.033Z,1008.42
2017-04-24T11:19:45.990Z,1008.42
2017-04-24T11:20:45.995Z,1008.38
2017-04-24T11:21:46.002Z,1008.39
2017-04-24T11:22:46.008Z,1008.38
2017-04-24T11:23:46.015Z,1008.33
2017-04-24T11:24:46.022Z,1008.3
2017-04-24T11:25:46.077Z,1008.42
2017-04-24T11:26:46.035Z,1008.33
2017-04-24T11:27:46.041Z,1008.35
2017-04-24T11:28:46.048Z,1008.3
2017-04-24T11:29:46.054Z,1008.34
2017-04-24T11:30:46.068Z,1008.36
2017-04-24T11:31:46.118Z,1008.29
2017-04-24T11:32:46.075Z,1008.35
2017-04-24T11:33:46.082Z,1008.24
2017-04-24T11:34:46.089Z,1008.2
2017-04-24T11:35:46.096Z,1008.17
2017-04-24T11:36:46.401Z,1008.17
2017-04-24T11:37:46.160Z,1008.13
2017-04-24T11:38:46.165Z,1008.15
2017-04-24T11:39:46.172Z,1008.04
2017-04-24T11:40:46.130Z,1008.05
2017-04-24T11:41:46.136Z,1008.07
2017-04-24T11:42:46.143Z,1008.09
2017-04-24T11:43:46.147Z,1008.03
2017-04-24T11:44:46.155Z,1008.14
2017-04-24T11:45:46.161Z,1008.1
2017-04-24T11:46:46.167Z,1008.14
2017-04-24T11:47:46.174Z,1008.11
2017-04-24T11:48:46.231Z,1008.09
2017-04-24T11:49:46.186Z,1008.14
2017-04-24T11:50:46.193Z,1008.04
2017-04-24T11:51:46.200Z,1007.99
2017-04-24T11:52:46.207Z,1008.04
2017-04-24T11:53:46.213Z,1007.96
2017-04-24T11:54:46.219Z,1007.98
2017-04-24T11:55:46.225Z,1007.91
2017-04-24T11:56:46.281Z,1007.87
2017-04-24T11:57:46.239Z,1007.78
2017-04-24T11:58:46.246Z,1007.8
2017-04-24T11:59:46.302Z,1007.75
2017-04-24T12:00:46.311Z,1007.76
2017-04-24T12:01:46.266Z,1007.82
2017-04-24T12:02:46.272Z,1007.75
2017-04-24T12:03:46.278Z,1007.73
2017-04-24T12:04:46.285Z,1007.77
2017-04-24T12:05:46.291Z,1007.75
2017-04-24T12:06:46.300Z,1007.72
2017-04-24T12:07:46.305Z,1007.7